createdAt,value
2018-04-10T00:01:35.249Z,99954
2018-04-10T00:04:04.157Z,99965
2018-04-10T00:06:32.377Z,99964
2018-04-10T00:09:00.537Z,99961
2018-04-10T00:11:28.725Z,99958
2018-04-10T00:13:56.861Z,99957
2018-04-10T00:16:25.008Z,99963
2018-04-10T00:18:53.910Z,99964
2018-04-10T00:21:22.053Z,99957
2018-04-10T00:23:50.278Z,99963
2018-04-10T00:26:18.456Z,99962
2018-04-10T00:28:46.591Z,99956
2018-04-10T00:31:15.541Z,99955
2018-04-10T00:33:43.689Z,99954
2018-04-10T00:36:11.834Z,99955
2018-04-10T00:38:39.965Z,99946
2018-04-10T00:41:08.277Z,99954
2018-04-10T00:43:37.180Z,99947
2018-04-10T00:46:05.324Z,99941
2018-04-10T00:48:33.629Z,99943
2018-04-10T00:51:01.758Z,99940
2018-04-10T00:53:36.859Z,99941
2018-04-10T00:56:04.985Z,99946
2018-04-10T00:58:33.933Z,99942
2018-04-10T01:01:02.150Z,99947
2018-04-10T01:03:31.047Z,99940
2018-04-10T01:05:59.945Z,99939
2018-04-10T01:08:28.885Z,99939
2018-04-10T01:10:57.032Z,99935
2018-04-10T01:13:25.157Z,99931
2018-04-10T01:15:53.393Z,99936
2018-04-10T01:18:21.527Z,99935
2018-04-10T01:20:49.745Z,99928
2018-04-10T01:23:17.978Z,99928
2018-04-10T01:25:46.127Z,99926
2018-04-10T01:28:14.298Z,99928
2018-04-10T01:30:42.458Z,99919
2018-04-10T01:33:10.594Z,99923
2018-04-10T01:35:38.724Z,99927
2018-04-10T01:38:07.641Z,99922
2018-04-10T01:40:35.765Z,99914
2018-04-10T01:43:03.890Z,99920
2018-04-10T01:45:32.038Z,99917
2018-04-10T01:48:00.177Z,99914
2018-04-10T01:50:28.329Z,99911
2018-04-10T01:52:56.457Z,99907
2018-04-10T01:55:25.365Z,99915
2018-04-10T01:57:53.494Z,99914
2018-04-10T02:00:21.641Z,99923
2018-04-10T02:02:49.768Z,99918
2018-04-10T02:05:17.913Z,99924
2018-04-10T02:07:46.037Z,99929
2018-04-10T02:10:14.161Z,99918
2018-04-10T02:12:43.073Z,99917
2018-04-10T02:15:11.204Z,99914
2018-04-10T02:17:39.354Z,99907
2018-04-10T02:20:07.508Z,99909
2018-04-10T02:22:35.653Z,99910
2018-04-10T02:25:04.566Z,99909
2018-04-10T02:27:32.722Z,99910
2018-04-10T02:30:01.643Z,99910
2018-04-10T02:32:29.785Z,99909
2018-04-10T02:34:58.678Z,99915
2018-04-10T02:37:26.822Z,99904
2018-04-10T02:39:54.945Z,99911
2018-04-10T02:42:23.101Z,99906
2018-04-10T02:44:51.255Z,99905
2018-04-10T02:47:20.154Z,99903
2018-04-10T02:49:48.329Z,99900
2018-04-10T02:52:16.484Z,99897
2018-04-10T02:54:45.383Z,99895
2018-04-10T02:57:14.303Z,99896
2018-04-10T02:59:42.445Z,99896
2018-04-10T03:02:11.369Z,99891
2018-04-10T03:04:39.514Z,99896
2018-04-10T03:07:07.685Z,99885
2018-04-10T03:09:36.582Z,99891
2018-04-10T03:12:04.717Z,99886
2018-04-10T03:14:32.897Z,99888
2018-04-10T03:17:01.053Z,99889
2018-04-10T03:19:29.177Z,99886
2018-04-10T03:21:57.325Z,99890
2018-04-10T03:24:26.241Z,99889
2018-04-10T03:26:54.365Z,99890
2018-04-10T03:29:22.510Z,99895
2018-04-10T03:31:50.672Z,99892
2018-04-10T03:34:18.821Z,99892
2018-04-10T03:36:47.009Z,99904
2018-04-10T03:39:15.143Z,99897
2018-04-10T03:41:43.289Z,99908
2018-04-10T03:44:11.449Z,99898
2018-04-10T03:46:39.574Z,99895
2018-04-10T03:49:08.470Z,99898
2018-04-10T03:51:37.389Z,99903
2018-04-10T03:54:05.546Z,99894
2018-04-10T03:56:33.702Z,99890
2018-04-10T03:59:02.604Z,99882
2018-04-10T04:01:31.519Z,99885
2018-04-10T04:03:59.681Z,99875
2018-04-10T04:06:27.809Z,99882
2018-04-10T04:08:55.960Z,99886
2018-04-10T04:11:24.093Z,99884
2018-04-10T04:13:52.242Z,99875
2018-04-10T04:16:39.065Z,99873
2018-04-10T04:19:25.302Z,99871
2018-04-10T04:22:07.159Z,99871
2018-04-10T04:24:35.302Z,99877
2018-04-10T04:27:04.217Z,99876
2018-04-10T04:29:32.350Z,99875
2018-04-10T04:32:00.513Z,99876
2018-04-10T04:34:28.669Z,99881
2018-04-10T04:36:56.798Z,99883
2018-04-10T04:39:25.717Z,99879
2018-04-10T04:41:53.874Z,99881
2018-04-10T04:44:22.022Z,99888
2018-04-10T04:46:50.921Z,99899
2018-04-10T04:49:19.834Z,99895
2018-04-10T04:51:47.981Z,99899
2018-04-10T04:54:16.869Z,99894
2018-04-10T04:56:45.792Z,99902
2018-04-10T04:59:13.927Z,99897
2018-04-10T05:01:42.848Z,99902
2018-04-10T05:04:10.976Z,99892
2018-04-10T05:06:39.137Z,99890
2018-04-10T05:09:07.269Z,99894
2018-04-10T05:11:35.398Z,99897
2018-04-10T05:14:04.353Z,99893
2018-04-10T05:16:32.497Z,99893
2018-04-10T05:19:00.629Z,99891
2018-04-10T05:21:28.782Z,99898
2018-04-10T05:23:56.909Z,99890
2018-04-10T05:26:25.043Z,99898
2018-04-10T05:28:53.201Z,99902
2018-04-10T05:31:21.334Z,99912
2018-04-10T05:33:49.471Z,99918
2018-04-10T05:36:18.385Z,99917
2018-04-10T05:38:46.533Z,99918
2018-04-10T05:41:15.449Z,99915
2018-04-10T05:43:43.626Z,99903
2018-04-10T05:46:11.749Z,99904
2018-04-10T05:48:39.879Z,99910
2018-04-10T05:51:08.025Z,99914
2018-04-10T05:53:36.205Z,99911
2018-04-10T05:56:04.366Z,99920
2018-04-10T05:58:33.260Z,99915
2018-04-10T06:01:02.185Z,99915
2018-04-10T06:03:30.347Z,99924
2018-04-10T06:05:58.489Z,99918
2018-04-10T06:08:27.376Z,99917
2018-04-10T06:10:56.285Z,99917
2018-04-10T06:13:24.791Z,99918
2018-04-10T06:15:52.988Z,99915
2018-04-10T06:18:21.110Z,99907
2018-04-10T06:20:49.239Z,99905
2018-04-10T06:23:17.361Z,99910
2018-04-10T06:25:45.522Z,99917
2018-04-10T06:28:14.463Z,99919
2018-04-10T06:30:42.606Z,99928
2018-04-10T06:33:10.762Z,99917
2018-04-10T06:35:38.911Z,99916
2018-04-10T06:38:07.803Z,99920
2018-04-10T06:40:36.731Z,99912
2018-04-10T06:43:04.857Z,99918
2018-04-10T06:45:32.977Z,99918
2018-04-10T06:48:01.127Z,99923
2018-04-10T06:50:29.276Z,99917
2018-04-10T06:52:57.466Z,99912
2018-04-10T06:55:25.558Z,99917
2018-04-10T06:57:53.713Z,99922
2018-04-10T07:00:22.615Z,99929
2018-04-10T07:02:50.737Z,99919
2018-04-10T07:05:18.895Z,99928
2018-04-10T07:07:47.110Z,99932
2018-04-10T07:10:16.018Z,99929
2018-04-10T07:12:44.153Z,99937
2018-04-10T07:15:12.314Z,99932
2018-04-10T07:17:40.449Z,99936
2018-04-10T07:20:09.520Z,99945
2018-04-10T07:22:38.490Z,99942
2018-04-10T07:25:06.648Z,99940
2018-04-10T07:27:34.790Z,99943
2018-04-10T07:30:02.950Z,99946
2018-04-10T07:32:31.069Z,99956
2018-04-10T07:34:59.201Z,99953
2018-04-10T07:37:27.344Z,99947
2018-04-10T07:39:56.233Z,99949
2018-04-10T07:42:25.149Z,99951
2018-04-10T07:44:53.290Z,99956
2018-04-10T07:47:22.188Z,99951
2018-04-10T07:49:51.098Z,99953
2018-04-10T07:52:19.234Z,99946
2018-04-10T07:54:48.163Z,99948
2018-04-10T07:57:16.297Z,99945
2018-04-10T07:59:45.207Z,99946
2018-04-10T08:02:13.390Z,99943
2018-04-10T08:04:41.562Z,99939
2018-04-10T08:07:09.705Z,99946
2018-04-10T08:09:38.598Z,99948
2018-04-10T08:12:07.510Z,99949
2018-04-10T08:14:35.636Z,99947
2018-04-10T08:17:03.776Z,99942
2018-04-10T08:19:31.893Z,99946
2018-04-10T08:22:00.040Z,99948
2018-04-10T08:24:28.184Z,99946
2018-04-10T08:26:56.321Z,99948
2018-04-10T08:29:25.229Z,99952
2018-04-10T08:31:53.353Z,99951
2018-04-10T08:34:21.510Z,99951
2018-04-10T08:36:49.642Z,99951
2018-04-10T08:39:17.765Z,99951
2018-04-10T08:41:45.908Z,99951
2018-04-10T08:44:14.061Z,99951
2018-04-10T08:46:42.182Z,99956
2018-04-10T08:49:10.314Z,99957
2018-04-10T08:51:38.462Z,99955
2018-04-10T08:54:07.378Z,99959
2018-04-10T08:56:35.521Z,99959
2018-04-10T08:59:04.422Z,99955
2018-04-10T09:01:33.349Z,99967
2018-04-10T09:04:01.481Z,99972
2018-04-10T09:06:30.373Z,99970
2018-04-10T09:08:59.281Z,99967
2018-04-10T09:11:27.414Z,99973
2018-04-10T09:13:55.565Z,99972
2018-04-10T09:16:23.698Z,99967
2018-04-10T09:18:51.842Z,99968
2018-04-10T09:21:20.732Z,99974
2018-04-10T09:23:49.638Z,99967
2018-04-10T09:26:17.767Z,99970
2018-04-10T09:28:45.918Z,99970
2018-04-10T09:31:14.054Z,99973
2018-04-10T09:33:42.184Z,99964
2018-04-10T09:36:10.326Z,99968
2018-04-10T09:38:38.460Z,99968
2018-04-10T09:41:07.371Z,99968
2018-04-10T09:43:35.548Z,99973
2018-04-10T09:46:04.438Z,99968
2018-04-10T09:48:32.569Z,99968
2018-04-10T09:51:00.733Z,99979
2018-04-10T09:53:28.878Z,99981
2018-04-10T09:55:57.002Z,99981
2018-04-10T09:58:25.957Z,99991
2018-04-10T10:00:54.081Z,99988
2018-04-10T10:03:22.237Z,99983
2018-04-10T10:05:51.141Z,99995
2018-04-10T10:08:19.287Z,99989
2018-04-10T10:10:47.419Z,99995
2018-04-10T10:13:15.571Z,99995
2018-04-10T10:15:43.709Z,99986
2018-04-10T10:18:12.605Z,99988
2018-04-10T10:20:41.520Z,99996
2018-04-10T10:23:10.609Z,99999
2018-04-10T10:25:38.746Z,100005
2018-04-10T10:28:06.974Z,99989
2018-04-10T10:30:35.102Z,99996
2018-04-10T10:33:04.070Z,99994
2018-04-10T10:35:32.185Z,100007
2018-04-10T10:38:00.316Z,99998
2018-04-10T10:40:28.470Z,99998
2018-04-10T10:42:56.622Z,99996
2018-04-10T10:45:24.790Z,99991
2018-04-10T10:47:53.043Z,99994
2018-04-10T10:50:21.201Z,100005
2018-04-10T10:52:50.160Z,100002
2018-04-10T10:55:18.302Z,100009
2018-04-10T10:57:46.458Z,100003
2018-04-10T11:00:14.612Z,100009
2018-04-10T11:02:42.760Z,100006
2018-04-10T11:05:10.917Z,100006
2018-04-10T11:07:39.117Z,100009
2018-04-10T11:10:07.293Z,100003
2018-04-10T11:12:35.477Z,100002
2018-04-10T11:15:04.365Z,100010
2018-04-10T11:17:33.302Z,100004
2018-04-10T11:20:01.436Z,100010
2018-04-10T11:22:30.351Z,100010
2018-04-10T11:24:58.498Z,100009
2018-04-10T11:27:27.433Z,100011
2018-04-10T11:29:55.607Z,100015
2018-04-10T11:32:23.777Z,100018
2018-04-10T11:34:51.917Z,100010
2018-04-10T11:37:20.860Z,100007
2018-04-10T11:39:49.004Z,100012
2018-04-10T11:42:17.209Z,100010
2018-04-10T11:44:45.337Z,100008
2018-04-10T11:47:13.457Z,99998
2018-04-10T11:49:41.680Z,100003
2018-04-10T11:52:09.853Z,100000
2018-04-10T11:54:38.012Z,99998
2018-04-10T11:57:06.934Z,100000
2018-04-10T11:59:35.053Z,99995
2018-04-10T12:02:03.181Z,100009
2018-04-10T12:04:31.342Z,99997
2018-04-10T12:06:59.476Z,100005
2018-04-10T12:09:28.401Z,100001
2018-04-10T12:11:56.537Z,99993
2018-04-10T12:14:25.456Z,99998
2018-04-10T12:16:53.579Z,99997
2018-04-10T12:19:21.714Z,99997
2018-04-10T12:21:49.854Z,99990
2018-04-10T12:24:18.759Z,99994
2018-04-10T12:26:46.897Z,99995
2018-04-10T12:29:15.016Z,99983
2018-04-10T12:31:43.154Z,99985
2018-04-10T12:34:12.054Z,99987
2018-04-10T12:36:41.024Z,99984
2018-04-10T12:39:10.057Z,99982
2018-04-10T12:41:38.175Z,99983
2018-04-10T12:44:06.313Z,99988
2018-04-10T12:46:34.453Z,99982
2018-04-10T12:49:03.335Z,99979
2018-04-10T12:51:32.241Z,99978
2018-04-10T12:54:00.385Z,99978
2018-04-10T12:56:28.508Z,99984
2018-04-10T12:58:56.666Z,99990
2018-04-10T13:01:24.789Z,99981
2018-04-10T13:03:52.905Z,99984
2018-04-10T13:06:21.450Z,99982
2018-04-10T13:08:49.660Z,99982
2018-04-10T13:11:17.805Z,99984
2018-04-10T13:13:46.791Z,99983
2018-04-10T13:16:14.872Z,99977
2018-04-10T13:18:43.781Z,99982
2018-04-10T13:21:11.905Z,99989
2018-04-10T13:23:40.148Z,99987
2018-04-10T13:26:08.293Z,99994
2018-04-10T13:28:37.189Z,99985
2018-04-10T13:31:05.328Z,99988
2018-04-10T13:33:34.238Z,99989
2018-04-10T13:36:03.123Z,99987
2018-04-10T13:38:32.029Z,99991
2018-04-10T13:41:00.168Z,99984
2018-04-10T13:43:28.318Z,99973
2018-04-10T13:45:56.435Z,99981
2018-04-10T13:48:25.457Z,99967
2018-04-10T13:50:53.703Z,99972
2018-04-10T13:53:22.590Z,99969
2018-04-10T13:55:51.500Z,99963
2018-04-10T13:58:19.669Z,99968
2018-04-10T14:00:47.850Z,99953
2018-04-10T14:03:15.977Z,99966
2018-04-10T14:05:44.117Z,99961
2018-04-10T14:08:12.242Z,99965
2018-04-10T14:10:41.194Z,99963
2018-04-10T14:13:09.320Z,99962
2018-04-10T14:15:38.673Z,99960
2018-04-10T14:18:06.828Z,99962
2018-04-10T14:20:35.053Z,99951
2018-04-10T14:23:04.390Z,99960
2018-04-10T14:25:33.480Z,99952
2018-04-10T14:28:01.710Z,99947
2018-04-10T14:30:30.599Z,99937
2018-04-10T14:32:59.509Z,99948
2018-04-10T14:35:28.631Z,99936
2018-04-10T14:37:56.790Z,99927
2018-04-10T14:40:24.925Z,99931
2018-04-10T14:42:53.058Z,99936
2018-04-10T14:45:22.106Z,99933
2018-04-10T14:47:51.112Z,99934
2018-04-10T14:50:19.253Z,99933
2018-04-10T14:52:47.389Z,99931
2018-04-10T14:55:15.549Z,99927
2018-04-10T14:57:43.681Z,99925
2018-04-10T15:00:12.590Z,99931
2018-04-10T15:02:40.730Z,99926
2018-04-10T15:05:08.956Z,99927
2018-04-10T15:07:37.098Z,99932
2018-04-10T15:10:06.006Z,99925
2018-04-10T15:12:34.165Z,99930
2018-04-10T15:15:03.098Z,99926
2018-04-10T15:17:31.226Z,99925
2018-04-10T15:20:00.181Z,99919
2018-04-10T15:22:28.326Z,99920
2018-04-10T15:24:56.442Z,99918
2018-04-10T15:27:25.641Z,99919
2018-04-10T15:29:54.529Z,99911
2018-04-10T15:32:22.677Z,99918
2018-04-10T15:34:50.814Z,99914
2018-04-10T15:37:18.997Z,99910
2018-04-10T15:39:47.138Z,99905
2018-04-10T15:42:16.117Z,99909
2018-04-10T15:44:45.011Z,99923
2018-04-10T15:47:14.056Z,99914
2018-04-10T15:49:42.180Z,99915
2018-04-10T15:52:11.080Z,99919
2018-04-10T15:54:39.224Z,99913
2018-04-10T15:57:07.431Z,99929
2018-04-10T15:59:35.590Z,99928
2018-04-10T16:02:04.482Z,99935
2018-04-10T16:04:33.389Z,99932
2018-04-10T16:07:01.510Z,99932
2018-04-10T16:09:29.655Z,99934
2018-04-10T16:11:57.791Z,99940
2018-04-10T16:14:25.932Z,99938
2018-04-10T16:16:54.096Z,99924
2018-04-10T16:19:22.220Z,99935
2018-04-10T16:21:50.346Z,99924
2018-04-10T16:24:18.473Z,99936
2018-04-10T16:26:46.607Z,99937
2018-04-10T16:29:15.534Z,99933
2018-04-10T16:31:44.578Z,99942
2018-04-10T16:34:12.727Z,99942
2018-04-10T16:36:40.864Z,99947
2018-04-10T16:39:08.992Z,99952
2018-04-10T16:41:37.133Z,99953
2018-04-10T16:44:05.273Z,99956
2018-04-10T16:46:33.399Z,99962
2018-04-10T16:49:01.558Z,99959
2018-04-10T16:51:30.173Z,99962
2018-04-10T16:53:58.320Z,99966
2018-04-10T16:56:26.464Z,99968
2018-04-10T16:58:54.597Z,99970
2018-04-10T17:01:23.498Z,99968
2018-04-10T17:03:52.385Z,99969
2018-04-10T17:06:21.306Z,99964
2018-04-10T17:08:49.491Z,99968
2018-04-10T17:11:17.683Z,99971
2018-04-10T17:13:45.809Z,99972
2018-04-10T17:16:13.940Z,99977
2018-04-10T18:04:35.399Z,100027
2018-04-10T18:07:03.542Z,100027
2018-04-10T18:09:32.433Z,100030
2018-04-10T18:12:01.346Z,100033
2018-04-10T18:14:29.497Z,100044
2018-04-10T18:16:58.409Z,100043
2018-04-10T18:19:26.537Z,100054
2018-04-10T18:21:54.662Z,100051
2018-04-10T18:24:22.817Z,100055
2018-04-10T18:26:50.943Z,100066
2018-04-10T18:29:19.709Z,100061
2018-04-10T18:31:47.834Z,100073
2018-04-10T18:34:16.763Z,100076
2018-04-10T18:36:44.890Z,100081
2018-04-10T18:39:13.801Z,100084
2018-04-10T18:41:41.966Z,100088
2018-04-10T18:44:10.853Z,100089
2018-04-10T18:46:38.997Z,100094
2018-04-10T18:49:07.125Z,100097
2018-04-10T18:51:35.281Z,100107
2018-04-10T18:54:03.454Z,100106
2018-04-10T18:56:31.591Z,100111
2018-04-10T18:58:59.737Z,100117
2018-04-10T19:01:27.992Z,100128
2018-04-10T19:03:56.255Z,100139
2018-04-10T19:06:25.148Z,100131
2018-04-10T19:08:53.289Z,100145
2018-04-10T19:11:21.457Z,100142
2018-04-10T19:13:50.387Z,100143
2018-04-10T19:16:18.532Z,100141
2018-04-10T19:18:46.691Z,100143
2018-04-10T19:21:15.587Z,100156
2018-04-10T19:23:44.554Z,100158
2018-04-10T19:26:12.686Z,100156
2018-04-10T19:28:40.813Z,100161
2018-04-10T19:31:09.746Z,100162
2018-04-10T19:33:37.885Z,100147
2018-04-10T19:36:06.791Z,100151
2018-04-10T19:38:34.943Z,100169
2018-04-10T19:41:03.869Z,100166
2018-04-10T19:43:32.027Z,100169
2018-04-10T19:46:00.179Z,100170
2018-04-10T19:48:29.099Z,100176
2018-04-10T19:50:57.249Z,100177
2018-04-10T19:53:26.169Z,100178
2018-04-10T19:55:54.922Z,100184
2018-04-10T19:58:23.848Z,100183
2018-04-10T20:00:51.985Z,100181
2018-04-10T20:03:20.898Z,100189
2018-04-10T20:05:49.046Z,100185
2018-04-10T20:08:17.958Z,100197
2018-04-10T20:10:46.082Z,100196
2018-04-10T20:13:14.237Z,100188
2018-04-10T20:15:42.428Z,100189
2018-04-10T20:18:10.561Z,100203
2018-04-10T20:20:38.713Z,100192
2018-04-10T20:23:06.845Z,100193
2018-04-10T20:25:34.996Z,100184
2018-04-10T20:28:03.147Z,100187
2018-04-10T20:30:31.297Z,100193
2018-04-10T20:32:59.490Z,100194
2018-04-10T20:35:27.633Z,100185
2018-04-10T20:37:56.551Z,100196
2018-04-10T20:40:24.687Z,100203
2018-04-10T20:42:53.618Z,100198
2018-04-10T20:45:21.745Z,100215
2018-04-10T20:47:49.885Z,100214
2018-04-10T20:50:18.047Z,100215
2018-04-10T20:52:46.184Z,100220
2018-04-10T20:55:14.318Z,100231
2018-04-10T20:57:42.469Z,100237
2018-04-10T21:00:10.600Z,100246
2018-04-10T21:02:39.493Z,100254
2018-04-10T21:05:07.641Z,100243
2018-04-10T21:07:35.770Z,100246
2018-04-10T21:10:03.914Z,100259
2018-04-10T21:12:32.042Z,100264
2018-04-10T21:15:00.193Z,100251
2018-04-10T21:17:28.328Z,100259
2018-04-10T21:19:56.477Z,100261
2018-04-10T21:22:24.621Z,100268
2018-04-10T21:24:52.745Z,100262
2018-04-10T21:27:20.901Z,100258
2018-04-10T21:29:49.814Z,100263
2018-04-10T21:32:18.001Z,100259
2018-04-10T21:34:46.127Z,100266
2018-04-10T21:37:15.045Z,100256
2018-04-10T21:39:43.173Z,100262
2018-04-10T21:42:11.327Z,100264
2018-04-10T21:44:39.463Z,100259
2018-04-10T21:47:07.601Z,100264
2018-04-10T21:49:35.751Z,100251
2018-04-10T21:52:03.873Z,100250
2018-04-10T21:54:32.022Z,100250
2018-04-10T21:57:00.182Z,100243
2018-04-10T21:59:28.322Z,100247
2018-04-10T22:01:56.461Z,100243
2018-04-10T22:04:24.601Z,100243
2018-04-10T22:06:52.726Z,100244
2018-04-10T22:09:20.890Z,100235
2018-04-10T22:11:49.021Z,100241
2018-04-10T22:14:17.156Z,100247
2018-04-10T22:16:45.314Z,100250
2018-04-10T22:19:13.444Z,100243
2018-04-10T22:21:41.582Z,100246
2018-04-10T22:24:09.730Z,100233
2018-04-10T22:26:37.886Z,100244
2018-04-10T22:29:06.090Z,100241
2018-04-10T22:31:34.193Z,100242
2018-04-10T22:34:02.314Z,100252
2018-04-10T22:36:30.451Z,100261
2018-04-10T22:38:58.579Z,100260
2018-04-10T22:41:26.800Z,100260
2018-04-10T22:43:54.882Z,100254
2018-04-10T22:46:23.034Z,100262
2018-04-10T22:48:51.171Z,100257
2018-04-10T22:51:19.990Z,100257
2018-04-10T22:53:48.126Z,100266
2018-04-10T22:56:16.290Z,100276
2018-04-10T22:58:44.418Z,100273
2018-04-10T23:01:12.553Z,100280
2018-04-10T23:03:40.702Z,100276
2018-04-10T23:06:08.852Z,100280
2018-04-10T23:08:37.018Z,100288
2018-04-10T23:11:05.150Z,100295
2018-04-10T23:13:33.310Z,100285
2018-04-10T23:16:01.483Z,100285
2018-04-10T23:18:29.650Z,100279
2018-04-10T23:20:57.850Z,100274
2018-04-10T23:23:25.986Z,100285
2018-04-10T23:25:54.139Z,100278
2018-04-10T23:28:22.270Z,100283
2018-04-10T23:30:50.431Z,100289
2018-04-10T23:33:18.569Z,100296
2018-04-10T23:35:46.729Z,100289
2018-04-10T23:38:15.629Z,100281
2018-04-10T23:40:43.770Z,100288
2018-04-10T23:43:11.925Z,100289
2018-04-10T23:45:40.078Z,100289
2018-04-10T23:48:08.214Z,100292
2018-04-10T23:50:37.130Z,100294
2018-04-10T23:53:05.262Z,100295
2018-04-10T23:55:34.173Z,100291
2018-04-10T23:58:02.298Z,100294
